sensor_id;sensor_type;location;lat;lon;timestamp;P1;durP1;ratioP1;P2;durP2;ratioP2
7969;SDS011;4030;52.362;9.206;2024-02-26T00:01:42;1.70;;;1.60;;
7969;SDS011;4030;52.362;9.206;2024-02-26T00:04:11;1.50;;;1.40;;
7969;SDS011;4030;52.362;9.206;2024-02-26T00:06:38;1.90;;;1.60;;
7969;SDS011;4030;52.362;9.206;2024-02-26T00:09:07;1.83;;;1.50;;
7969;SDS011;4030;52.362;9.206;2024-02-26T00:11:35;1.60;;;1.50;;
7969;SDS011;4030;52.362;9.206;2024-02-26T00:14:01;1.93;;;1.40;;
7969;SDS011;4030;52.362;9.206;2024-02-26T00:16:27;1.80;;;1.50;;
7969;SDS011;4030;52.362;9.206;2024-02-26T00:18:52;2.00;;;1.60;;
7969;SDS011;4030;52.362;9.206;2024-02-26T00:21:18;2.30;;;1.77;;
7969;SDS011;4030;52.362;9.206;2024-02-26T00:23:44;1.80;;;1.50;;
7969;SDS011;4030;52.362;9.206;2024-02-26T00:26:09;2.00;;;1.70;;
7969;SDS011;4030;52.362;9.206;2024-02-26T00:28:35;1.70;;;1.57;;
7969;SDS011;4030;52.362;9.206;2024-02-26T00:31:02;2.00;;;1.80;;
7969;SDS011;4030;52.362;9.206;2024-02-26T00:33:28;1.90;;;1.50;;
7969;SDS011;4030;52.362;9.206;2024-02-26T00:35:53;1.70;;;1.60;;
7969;SDS011;4030;52.362;9.206;2024-02-26T00:38:19;1.77;;;1.53;;
7969;SDS011;4030;52.362;9.206;2024-02-26T00:40:45;2.40;;;1.50;;
7969;SDS011;4030;52.362;9.206;2024-02-26T00:43:11;2.17;;;1.60;;
7969;SDS011;4030;52.362;9.206;2024-02-26T00:45:37;2.07;;;1.73;;
7969;SDS011;4030;52.362;9.206;2024-02-26T00:48:03;2.10;;;1.80;;
7969;SDS011;4030;52.362;9.206;2024-02-26T00:50:32;1.77;;;1.67;;
7969;SDS011;4030;52.362;9.206;2024-02-26T00:53:01;2.20;;;1.70;;
7969;SDS011;4030;52.362;9.206;2024-02-26T00:55:27;1.93;;;1.70;;
7969;SDS011;4030;52.362;9.206;2024-02-26T00:57:53;2.17;;;1.63;;
7969;SDS011;4030;52.362;9.206;2024-02-26T01:00:18;2.20;;;1.90;;
7969;SDS011;4030;52.362;9.206;2024-02-26T01:02:44;1.90;;;1.70;;
7969;SDS011;4030;52.362;9.206;2024-02-26T01:05:13;2.00;;;1.60;;
7969;SDS011;4030;52.362;9.206;2024-02-26T01:07:39;2.00;;;1.80;;
7969;SDS011;4030;52.362;9.206;2024-02-26T01:10:06;1.80;;;1.57;;
7969;SDS011;4030;52.362;9.206;2024-02-26T01:12:32;2.10;;;1.90;;
7969;SDS011;4030;52.362;9.206;2024-02-26T01:14:59;1.90;;;1.70;;
7969;SDS011;4030;52.362;9.206;2024-02-26T01:17:28;2.00;;;1.80;;
7969;SDS011;4030;52.362;9.206;2024-02-26T01:19:54;2.27;;;1.80;;
7969;SDS011;4030;52.362;9.206;2024-02-26T01:22:20;1.97;;;1.77;;
7969;SDS011;4030;52.362;9.206;2024-02-26T01:24:46;1.87;;;1.70;;
7969;SDS011;4030;52.362;9.206;2024-02-26T01:27:11;1.57;;;1.47;;
7969;SDS011;4030;52.362;9.206;2024-02-26T01:29:39;1.90;;;1.70;;
7969;SDS011;4030;52.362;9.206;2024-02-26T01:32:05;1.90;;;1.70;;
7969;SDS011;4030;52.362;9.206;2024-02-26T01:34:31;1.60;;;1.50;;
7969;SDS011;4030;52.362;9.206;2024-02-26T01:36:56;2.00;;;1.77;;
7969;SDS011;4030;52.362;9.206;2024-02-26T01:39:22;2.43;;;1.83;;
7969;SDS011;4030;52.362;9.206;2024-02-26T01:41:48;2.40;;;1.80;;
7969;SDS011;4030;52.362;9.206;2024-02-26T01:44:14;2.30;;;1.80;;
7969;SDS011;4030;52.362;9.206;2024-02-26T01:46:40;2.37;;;1.90;;
7969;SDS011;4030;52.362;9.206;2024-02-26T01:49:06;2.10;;;1.90;;
7969;SDS011;4030;52.362;9.206;2024-02-26T01:51:33;2.40;;;1.97;;
7969;SDS011;4030;52.362;9.206;2024-02-26T01:54:00;2.43;;;2.00;;
7969;SDS011;4030;52.362;9.206;2024-02-26T01:56:28;2.47;;;1.67;;
7969;SDS011;4030;52.362;9.206;2024-02-26T01:58:57;2.13;;;1.93;;
7969;SDS011;4030;52.362;9.206;2024-02-26T02:01:28;2.13;;;1.93;;
7969;SDS011;4030;52.362;9.206;2024-02-26T02:03:56;2.10;;;1.90;;
7969;SDS011;4030;52.362;9.206;2024-02-26T02:06:24;2.10;;;1.90;;
7969;SDS011;4030;52.362;9.206;2024-02-26T02:08:52;2.30;;;1.70;;
7969;SDS011;4030;52.362;9.206;2024-02-26T02:11:19;1.83;;;1.63;;
7969;SDS011;4030;52.362;9.206;2024-02-26T02:13:45;2.43;;;1.97;;
7969;SDS011;4030;52.362;9.206;2024-02-26T02:16:12;2.13;;;1.87;;
7969;SDS011;4030;52.362;9.206;2024-02-26T02:18:38;1.67;;;1.57;;
7969;SDS011;4030;52.362;9.206;2024-02-26T02:21:03;2.70;;;2.00;;
7969;SDS011;4030;52.362;9.206;2024-02-26T02:23:29;2.20;;;1.83;;
7969;SDS011;4030;52.362;9.206;2024-02-26T02:25:56;2.67;;;2.10;;
7969;SDS011;4030;52.362;9.206;2024-02-26T02:28:23;2.03;;;1.83;;
7969;SDS011;4030;52.362;9.206;2024-02-26T02:30:50;2.70;;;1.90;;
7969;SDS011;4030;52.362;9.206;2024-02-26T02:33:16;2.37;;;2.00;;
7969;SDS011;4030;52.362;9.206;2024-02-26T02:35:42;2.30;;;1.97;;
7969;SDS011;4030;52.362;9.206;2024-02-26T02:38:08;2.60;;;2.07;;
7969;SDS011;4030;52.362;9.206;2024-02-26T02:40:33;2.00;;;1.80;;
7969;SDS011;4030;52.362;9.206;2024-02-26T02:42:59;2.00;;;1.80;;
7969;SDS011;4030;52.362;9.206;2024-02-26T02:45:26;2.37;;;2.00;;
7969;SDS011;4030;52.362;9.206;2024-02-26T02:47:56;2.73;;;2.27;;
7969;SDS011;4030;52.362;9.206;2024-02-26T02:50:21;2.23;;;2.03;;
7969;SDS011;4030;52.362;9.206;2024-02-26T02:52:47;3.27;;;2.27;;
7969;SDS011;4030;52.362;9.206;2024-02-26T02:55:14;2.30;;;1.90;;
7969;SDS011;4030;52.362;9.206;2024-02-26T02:57:39;2.20;;;2.00;;
7969;SDS011;4030;52.362;9.206;2024-02-26T03:00:09;2.90;;;1.97;;
7969;SDS011;4030;52.362;9.206;2024-02-26T03:02:36;2.20;;;1.90;;
7969;SDS011;4030;52.362;9.206;2024-02-26T03:05:05;2.20;;;1.80;;
7969;SDS011;4030;52.362;9.206;2024-02-26T03:07:31;2.87;;;2.27;;
7969;SDS011;4030;52.362;9.206;2024-02-26T03:09:56;3.10;;;2.17;;
7969;SDS011;4030;52.362;9.206;2024-02-26T03:12:22;2.50;;;2.30;;
7969;SDS011;4030;52.362;9.206;2024-02-26T03:14:48;2.87;;;2.33;;
7969;SDS011;4030;52.362;9.206;2024-02-26T03:17:14;2.40;;;2.20;;
7969;SDS011;4030;52.362;9.206;2024-02-26T03:19:39;2.27;;;2.07;;
7969;SDS011;4030;52.362;9.206;2024-02-26T03:22:05;2.97;;;2.20;;
7969;SDS011;4030;52.362;9.206;2024-02-26T03:24:31;2.40;;;2.13;;
7969;SDS011;4030;52.362;9.206;2024-02-26T03:26:56;2.50;;;2.00;;
7969;SDS011;4030;52.362;9.206;2024-02-26T03:29:22;2.47;;;2.17;;
7969;SDS011;4030;52.362;9.206;2024-02-26T03:31:48;2.30;;;2.10;;
7969;SDS011;4030;52.362;9.206;2024-02-26T03:34:13;2.80;;;2.30;;
7969;SDS011;4030;52.362;9.206;2024-02-26T03:36:39;3.03;;;2.20;;
7969;SDS011;4030;52.362;9.206;2024-02-26T03:39:06;2.70;;;2.33;;
7969;SDS011;4030;52.362;9.206;2024-02-26T03:41:33;2.47;;;2.23;;
7969;SDS011;4030;52.362;9.206;2024-02-26T03:43:59;2.93;;;2.50;;
7969;SDS011;4030;52.362;9.206;2024-02-26T03:46:24;3.13;;;2.37;;
7969;SDS011;4030;52.362;9.206;2024-02-26T03:48:50;3.03;;;2.13;;
7969;SDS011;4030;52.362;9.206;2024-02-26T03:51:16;3.43;;;2.50;;
7969;SDS011;4030;52.362;9.206;2024-02-26T03:53:41;2.80;;;2.50;;
7969;SDS011;4030;52.362;9.206;2024-02-26T03:56:07;3.17;;;2.50;;
7969;SDS011;4030;52.362;9.206;2024-02-26T03:58:33;2.40;;;2.10;;
7969;SDS011;4030;52.362;9.206;2024-02-26T04:00:59;2.70;;;2.50;;
7969;SDS011;4030;52.362;9.206;2024-02-26T04:03:25;3.60;;;2.53;;
7969;SDS011;4030;52.362;9.206;2024-02-26T04:05:51;2.63;;;2.40;;
7969;SDS011;4030;52.362;9.206;2024-02-26T04:08:17;2.90;;;2.50;;
7969;SDS011;4030;52.362;9.206;2024-02-26T04:10:42;3.17;;;2.67;;
7969;SDS011;4030;52.362;9.206;2024-02-26T04:13:08;2.90;;;2.60;;
7969;SDS011;4030;52.362;9.206;2024-02-26T04:15:34;3.17;;;2.50;;
7969;SDS011;4030;52.362;9.206;2024-02-26T04:17:59;2.70;;;2.40;;
7969;SDS011;4030;52.362;9.206;2024-02-26T04:20:25;4.30;;;2.70;;
7969;SDS011;4030;52.362;9.206;2024-02-26T04:25:47;3.53;;;2.80;;
7969;SDS011;4030;52.362;9.206;2024-02-26T04:28:13;3.43;;;2.80;;
7969;SDS011;4030;52.362;9.206;2024-02-26T04:30:39;3.77;;;2.70;;
7969;SDS011;4030;52.362;9.206;2024-02-26T04:33:05;3.43;;;2.43;;
7969;SDS011;4030;52.362;9.206;2024-02-26T04:35:31;2.63;;;2.43;;
7969;SDS011;4030;52.362;9.206;2024-02-26T04:37:57;3.23;;;2.70;;
7969;SDS011;4030;52.362;9.206;2024-02-26T04:40:22;3.13;;;2.83;;
7969;SDS011;4030;52.362;9.206;2024-02-26T04:42:49;3.00;;;2.67;;
7969;SDS011;4030;52.362;9.206;2024-02-26T04:45:15;3.20;;;2.70;;
7969;SDS011;4030;52.362;9.206;2024-02-26T04:47:40;4.10;;;2.80;;
7969;SDS011;4030;52.362;9.206;2024-02-26T04:50:06;3.27;;;2.70;;
7969;SDS011;4030;52.362;9.206;2024-02-26T04:52:32;4.37;;;3.10;;
7969;SDS011;4030;52.362;9.206;2024-02-26T04:54:58;3.37;;;2.73;;
7969;SDS011;4030;52.362;9.206;2024-02-26T04:57:24;3.77;;;2.87;;
7969;SDS011;4030;52.362;9.206;2024-02-26T04:59:51;5.83;;;3.10;;
7969;SDS011;4030;52.362;9.206;2024-02-26T05:02:16;3.87;;;2.97;;
7969;SDS011;4030;52.362;9.206;2024-02-26T05:04:42;3.60;;;2.87;;
7969;SDS011;4030;52.362;9.206;2024-02-26T05:07:08;3.40;;;2.80;;
7969;SDS011;4030;52.362;9.206;2024-02-26T05:09:34;2.90;;;2.60;;
7969;SDS011;4030;52.362;9.206;2024-02-26T05:12:00;3.20;;;2.77;;
7969;SDS011;4030;52.362;9.206;2024-02-26T05:14:26;4.27;;;3.37;;
7969;SDS011;4030;52.362;9.206;2024-02-26T05:16:51;3.93;;;3.00;;
7969;SDS011;4030;52.362;9.206;2024-02-26T05:19:17;4.30;;;3.10;;
7969;SDS011;4030;52.362;9.206;2024-02-26T05:21:42;3.47;;;2.97;;
7969;SDS011;4030;52.362;9.206;2024-02-26T05:24:09;4.47;;;2.83;;
7969;SDS011;4030;52.362;9.206;2024-02-26T05:26:35;3.77;;;2.90;;
7969;SDS011;4030;52.362;9.206;2024-02-26T05:29:01;3.70;;;3.00;;
7969;SDS011;4030;52.362;9.206;2024-02-26T05:31:27;3.03;;;2.43;;
7969;SDS011;4030;52.362;9.206;2024-02-26T05:33:53;4.17;;;2.57;;
7969;SDS011;4030;52.362;9.206;2024-02-26T05:36:20;2.87;;;2.57;;
7969;SDS011;4030;52.362;9.206;2024-02-26T05:38:47;3.57;;;2.60;;
7969;SDS011;4030;52.362;9.206;2024-02-26T05:41:16;3.27;;;2.70;;
7969;SDS011;4030;52.362;9.206;2024-02-26T05:43:48;2.57;;;2.37;;
7969;SDS011;4030;52.362;9.206;2024-02-26T05:46:17;3.27;;;2.60;;
7969;SDS011;4030;52.362;9.206;2024-02-26T05:48:43;3.50;;;2.60;;
7969;SDS011;4030;52.362;9.206;2024-02-26T05:51:11;2.93;;;2.23;;
7969;SDS011;4030;52.362;9.206;2024-02-26T05:53:37;3.20;;;2.40;;
7969;SDS011;4030;52.362;9.206;2024-02-26T05:56:03;3.87;;;2.50;;
7969;SDS011;4030;52.362;9.206;2024-02-26T05:58:28;3.07;;;2.50;;
7969;SDS011;4030;52.362;9.206;2024-02-26T06:00:54;2.83;;;2.50;;
7969;SDS011;4030;52.362;9.206;2024-02-26T06:03:20;4.57;;;2.67;;
7969;SDS011;4030;52.362;9.206;2024-02-26T06:05:46;2.93;;;2.30;;
7969;SDS011;4030;52.362;9.206;2024-02-26T06:08:11;3.13;;;2.40;;
7969;SDS011;4030;52.362;9.206;2024-02-26T06:10:37;2.93;;;2.37;;
7969;SDS011;4030;52.362;9.206;2024-02-26T06:13:04;2.90;;;2.60;;
7969;SDS011;4030;52.362;9.206;2024-02-26T06:15:30;2.60;;;2.27;;
7969;SDS011;4030;52.362;9.206;2024-02-26T06:17:55;2.80;;;2.50;;
7969;SDS011;4030;52.362;9.206;2024-02-26T06:20:21;3.33;;;2.23;;
7969;SDS011;4030;52.362;9.206;2024-02-26T06:22:47;2.67;;;2.40;;
7969;SDS011;4030;52.362;9.206;2024-02-26T06:25:12;2.93;;;2.40;;
7969;SDS011;4030;52.362;9.206;2024-02-26T06:27:38;3.00;;;2.60;;
7969;SDS011;4030;52.362;9.206;2024-02-26T06:30:04;3.77;;;2.40;;
7969;SDS011;4030;52.362;9.206;2024-02-26T06:32:30;2.90;;;2.40;;
7969;SDS011;4030;52.362;9.206;2024-02-26T06:34:56;3.00;;;2.50;;
7969;SDS011;4030;52.362;9.206;2024-02-26T06:37:22;2.87;;;2.60;;
7969;SDS011;4030;52.362;9.206;2024-02-26T06:39:48;2.80;;;2.10;;
7969;SDS011;4030;52.362;9.206;2024-02-26T06:42:13;2.27;;;2.00;;
7969;SDS011;4030;52.362;9.206;2024-02-26T06:44:39;2.60;;;2.10;;
7969;SDS011;4030;52.362;9.206;2024-02-26T06:47:05;2.67;;;2.30;;
7969;SDS011;4030;52.362;9.206;2024-02-26T06:49:30;2.73;;;2.17;;
7969;SDS011;4030;52.362;9.206;2024-02-26T06:51:56;3.80;;;2.20;;
7969;SDS011;4030;52.362;9.206;2024-02-26T06:54:22;2.10;;;1.90;;
7969;SDS011;4030;52.362;9.206;2024-02-26T06:56:47;2.83;;;2.20;;
7969;SDS011;4030;52.362;9.206;2024-02-26T06:59:13;2.50;;;2.00;;
7969;SDS011;4030;52.362;9.206;2024-02-26T07:01:40;3.00;;;2.47;;
7969;SDS011;4030;52.362;9.206;2024-02-26T07:04:06;3.53;;;2.10;;
7969;SDS011;4030;52.362;9.206;2024-02-26T07:06:32;2.70;;;2.10;;
7969;SDS011;4030;52.362;9.206;2024-02-26T07:08:57;2.43;;;2.10;;
7969;SDS011;4030;52.362;9.206;2024-02-26T07:11:23;2.70;;;2.00;;
7969;SDS011;4030;52.362;9.206;2024-02-26T07:13:49;2.90;;;2.40;;
7969;SDS011;4030;52.362;9.206;2024-02-26T07:16:15;2.77;;;2.27;;
7969;SDS011;4030;52.362;9.206;2024-02-26T07:18:41;2.53;;;2.10;;
7969;SDS011;4030;52.362;9.206;2024-02-26T07:21:08;3.60;;;2.47;;
7969;SDS011;4030;52.362;9.206;2024-02-26T07:23:34;2.37;;;2.13;;
7969;SDS011;4030;52.362;9.206;2024-02-26T07:26:00;2.10;;;1.90;;
7969;SDS011;4030;52.362;9.206;2024-02-26T07:28:26;3.17;;;2.50;;
7969;SDS011;4030;52.362;9.206;2024-02-26T07:30:51;3.37;;;2.80;;
7969;SDS011;4030;52.362;9.206;2024-02-26T07:33:17;3.63;;;2.93;;
7969;SDS011;4030;52.362;9.206;2024-02-26T07:35:43;4.20;;;3.20;;
7969;SDS011;4030;52.362;9.206;2024-02-26T07:38:08;3.30;;;2.80;;
7969;SDS011;4030;52.362;9.206;2024-02-26T07:40:34;5.10;;;3.20;;
7969;SDS011;4030;52.362;9.206;2024-02-26T07:43:01;3.50;;;2.80;;
7969;SDS011;4030;52.362;9.206;2024-02-26T07:45:26;3.30;;;2.80;;
7969;SDS011;4030;52.362;9.206;2024-02-26T07:47:52;3.30;;;2.83;;
7969;SDS011;4030;52.362;9.206;2024-02-26T07:50:18;3.50;;;3.00;;
7969;SDS011;4030;52.362;9.206;2024-02-26T07:52:44;3.10;;;2.80;;
7969;SDS011;4030;52.362;9.206;2024-02-26T07:55:10;3.43;;;2.97;;
7969;SDS011;4030;52.362;9.206;2024-02-26T07:57:36;4.57;;;2.87;;
7969;SDS011;4030;52.362;9.206;2024-02-26T08:00:02;4.33;;;3.33;;
7969;SDS011;4030;52.362;9.206;2024-02-26T08:02:32;4.00;;;3.60;;
7969;SDS011;4030;52.362;9.206;2024-02-26T08:04:59;4.20;;;3.60;;
7969;SDS011;4030;52.362;9.206;2024-02-26T08:07:24;4.00;;;3.60;;
7969;SDS011;4030;52.362;9.206;2024-02-26T08:09:50;4.20;;;3.73;;
7969;SDS011;4030;52.362;9.206;2024-02-26T08:12:15;4.60;;;3.90;;
7969;SDS011;4030;52.362;9.206;2024-02-26T08:14:41;4.03;;;3.50;;
7969;SDS011;4030;52.362;9.206;2024-02-26T08:17:08;4.90;;;3.83;;
7969;SDS011;4030;52.362;9.206;2024-02-26T08:19:34;4.10;;;3.50;;
7969;SDS011;4030;52.362;9.206;2024-02-26T08:22:00;3.60;;;3.27;;
7969;SDS011;4030;52.362;9.206;2024-02-26T08:24:26;4.50;;;3.70;;
7969;SDS011;4030;52.362;9.206;2024-02-26T08:26:53;4.20;;;3.40;;
7969;SDS011;4030;52.362;9.206;2024-02-26T08:29:18;3.63;;;3.07;;
7969;SDS011;4030;52.362;9.206;2024-02-26T08:31:44;3.80;;;3.30;;
7969;SDS011;4030;52.362;9.206;2024-02-26T08:34:10;3.77;;;3.27;;
7969;SDS011;4030;52.362;9.206;2024-02-26T08:36:35;4.57;;;3.03;;
7969;SDS011;4030;52.362;9.206;2024-02-26T08:39:01;3.40;;;3.10;;
7969;SDS011;4030;52.362;9.206;2024-02-26T08:41:27;3.23;;;2.67;;
7969;SDS011;4030;52.362;9.206;2024-02-26T08:43:54;3.63;;;2.80;;
7969;SDS011;4030;52.362;9.206;2024-02-26T08:46:19;3.53;;;2.70;;
7969;SDS011;4030;52.362;9.206;2024-02-26T08:48:45;3.17;;;2.67;;
7969;SDS011;4030;52.362;9.206;2024-02-26T08:51:11;2.97;;;2.50;;
7969;SDS011;4030;52.362;9.206;2024-02-26T08:53:38;3.07;;;2.60;;
7969;SDS011;4030;52.362;9.206;2024-02-26T08:56:04;2.50;;;2.30;;
7969;SDS011;4030;52.362;9.206;2024-02-26T08:58:30;2.90;;;2.23;;
7969;SDS011;4030;52.362;9.206;2024-02-26T09:00:56;2.27;;;2.07;;
7969;SDS011;4030;52.362;9.206;2024-02-26T09:03:21;3.63;;;2.37;;
7969;SDS011;4030;52.362;9.206;2024-02-26T09:05:47;2.83;;;2.53;;
7969;SDS011;4030;52.362;9.206;2024-02-26T09:08:13;2.90;;;2.23;;
7969;SDS011;4030;52.362;9.206;2024-02-26T09:10:39;2.90;;;2.30;;
7969;SDS011;4030;52.362;9.206;2024-02-26T09:13:05;2.53;;;2.33;;
7969;SDS011;4030;52.362;9.206;2024-02-26T09:15:31;2.97;;;2.33;;
7969;SDS011;4030;52.362;9.206;2024-02-26T09:17:57;2.67;;;2.47;;
7969;SDS011;4030;52.362;9.206;2024-02-26T09:20:22;3.07;;;2.50;;
7969;SDS011;4030;52.362;9.206;2024-02-26T09:22:49;2.53;;;2.30;;
7969;SDS011;4030;52.362;9.206;2024-02-26T09:25:15;3.13;;;2.57;;
7969;SDS011;4030;52.362;9.206;2024-02-26T09:27:42;3.40;;;2.47;;
7969;SDS011;4030;52.362;9.206;2024-02-26T09:30:09;2.87;;;2.30;;
7969;SDS011;4030;52.362;9.206;2024-02-26T09:32:36;2.40;;;2.20;;
7969;SDS011;4030;52.362;9.206;2024-02-26T09:35:03;2.50;;;2.30;;
7969;SDS011;4030;52.362;9.206;2024-02-26T09:37:29;2.70;;;2.33;;
7969;SDS011;4030;52.362;9.206;2024-02-26T09:39:54;2.63;;;2.40;;
7969;SDS011;4030;52.362;9.206;2024-02-26T09:42:20;2.27;;;2.07;;
7969;SDS011;4030;52.362;9.206;2024-02-26T09:44:50;2.40;;;2.03;;
7969;SDS011;4030;52.362;9.206;2024-02-26T09:47:20;2.50;;;1.97;;
7969;SDS011;4030;52.362;9.206;2024-02-26T09:49:47;2.40;;;2.10;;
7969;SDS011;4030;52.362;9.206;2024-02-26T09:52:14;3.30;;;2.07;;
7969;SDS011;4030;52.362;9.206;2024-02-26T09:54:41;2.37;;;2.10;;
7969;SDS011;4030;52.362;9.206;2024-02-26T09:57:08;2.20;;;1.80;;
7969;SDS011;4030;52.362;9.206;2024-02-26T09:59:41;2.73;;;1.83;;
7969;SDS011;4030;52.362;9.206;2024-02-26T10:02:14;1.90;;;1.70;;
7969;SDS011;4030;52.362;9.206;2024-02-26T10:04:40;4.13;;;1.90;;
7969;SDS011;4030;52.362;9.206;2024-02-26T10:07:10;2.10;;;1.90;;
7969;SDS011;4030;52.362;9.206;2024-02-26T10:09:38;2.67;;;1.90;;
7969;SDS011;4030;52.362;9.206;2024-02-26T10:12:04;2.20;;;1.77;;
7969;SDS011;4030;52.362;9.206;2024-02-26T10:14:32;2.00;;;1.80;;
7969;SDS011;4030;52.362;9.206;2024-02-26T10:16:58;2.33;;;1.73;;
7969;SDS011;4030;52.362;9.206;2024-02-26T10:19:29;2.17;;;1.90;;
7969;SDS011;4030;52.362;9.206;2024-02-26T10:21:58;3.03;;;1.73;;
7969;SDS011;4030;52.362;9.206;2024-02-26T10:24:26;1.80;;;1.60;;
7969;SDS011;4030;52.362;9.206;2024-02-26T10:26:53;2.30;;;1.70;;
7969;SDS011;4030;52.362;9.206;2024-02-26T10:29:20;3.25;;;1.65;;
7969;SDS011;4030;52.362;9.206;2024-02-26T10:31:48;2.60;;;1.77;;
7969;SDS011;4030;52.362;9.206;2024-02-26T10:34:16;1.90;;;1.70;;
7969;SDS011;4030;52.362;9.206;2024-02-26T10:36:42;1.70;;;1.60;;
7969;SDS011;4030;52.362;9.206;2024-02-26T10:39:09;2.03;;;1.70;;
7969;SDS011;4030;52.362;9.206;2024-02-26T10:41:37;1.87;;;1.60;;
7969;SDS011;4030;52.362;9.206;2024-02-26T10:44:03;3.17;;;1.90;;
7969;SDS011;4030;52.362;9.206;2024-02-26T10:46:29;2.00;;;1.60;;
7969;SDS011;4030;52.362;9.206;2024-02-26T10:48:55;1.83;;;1.70;;
7969;SDS011;4030;52.362;9.206;2024-02-26T10:51:28;2.00;;;1.63;;
7969;SDS011;4030;52.362;9.206;2024-02-26T10:53:56;3.23;;;1.70;;
7969;SDS011;4030;52.362;9.206;2024-02-26T10:56:27;1.90;;;1.70;;
7969;SDS011;4030;52.362;9.206;2024-02-26T10:58:57;2.23;;;1.70;;
7969;SDS011;4030;52.362;9.206;2024-02-26T11:01:24;1.80;;;1.53;;
7969;SDS011;4030;52.362;9.206;2024-02-26T11:03:52;1.83;;;1.57;;
7969;SDS011;4030;52.362;9.206;2024-02-26T11:06:18;1.50;;;1.40;;
7969;SDS011;4030;52.362;9.206;2024-02-26T11:08:52;2.60;;;1.77;;
7969;SDS011;4030;52.362;9.206;2024-02-26T11:11:18;2.10;;;1.67;;
7969;SDS011;4030;52.362;9.206;2024-02-26T11:13:45;1.70;;;1.47;;
7969;SDS011;4030;52.362;9.206;2024-02-26T11:16:18;1.60;;;1.50;;
7969;SDS011;4030;52.362;9.206;2024-02-26T11:18:46;2.00;;;1.80;;
7969;SDS011;4030;52.362;9.206;2024-02-26T11:21:16;2.80;;;1.70;;
7969;SDS011;4030;52.362;9.206;2024-02-26T11:23:52;1.67;;;1.50;;
7969;SDS011;4030;52.362;9.206;2024-02-26T11:26:18;1.77;;;1.50;;
7969;SDS011;4030;52.362;9.206;2024-02-26T11:28:45;3.50;;;1.47;;
7969;SDS011;4030;52.362;9.206;2024-02-26T11:31:13;1.77;;;1.40;;
7969;SDS011;4030;52.362;9.206;2024-02-26T11:33:39;1.80;;;1.50;;
7969;SDS011;4030;52.362;9.206;2024-02-26T11:36:11;2.08;;;1.60;;
7969;SDS011;4030;52.362;9.206;2024-02-26T11:38:38;2.83;;;1.67;;
7969;SDS011;4030;52.362;9.206;2024-02-26T11:41:05;1.95;;;1.50;;
7969;SDS011;4030;52.362;9.206;2024-02-26T11:49:00;2.17;;;1.70;;
7969;SDS011;4030;52.362;9.206;2024-02-26T11:51:32;2.75;;;1.40;;
7969;SDS011;4030;52.362;9.206;2024-02-26T11:53:59;2.22;;;1.60;;
7969;SDS011;4030;52.362;9.206;2024-02-26T11:56:25;1.63;;;1.45;;
7969;SDS011;4030;52.362;9.206;2024-02-26T11:59:01;2.38;;;1.48;;
7969;SDS011;4030;52.362;9.206;2024-02-26T12:01:45;1.95;;;1.55;;
7969;SDS011;4030;52.362;9.206;2024-02-26T12:04:18;1.60;;;1.50;;
7969;SDS011;4030;52.362;9.206;2024-02-26T12:06:52;2.42;;;1.73;;
7969;SDS011;4030;52.362;9.206;2024-02-26T12:09:33;2.17;;;1.70;;
7969;SDS011;4030;52.362;9.206;2024-02-26T12:12:09;1.80;;;1.60;;
7969;SDS011;4030;52.362;9.206;2024-02-26T12:14:38;1.77;;;1.67;;
7969;SDS011;4030;52.362;9.206;2024-02-26T12:17:25;1.80;;;1.55;;
7969;SDS011;4030;52.362;9.206;2024-02-26T12:19:52;1.67;;;1.45;;
7969;SDS011;4030;52.362;9.206;2024-02-26T12:22:18;1.70;;;1.50;;
7969;SDS011;4030;52.362;9.206;2024-02-26T12:24:44;1.92;;;1.70;;
7969;SDS011;4030;52.362;9.206;2024-02-26T12:27:10;1.92;;;1.70;;
7969;SDS011;4030;52.362;9.206;2024-02-26T12:29:36;1.92;;;1.42;;
7969;SDS011;4030;52.362;9.206;2024-02-26T12:32:03;2.17;;;1.50;;
7969;SDS011;4030;52.362;9.206;2024-02-26T12:34:30;1.80;;;1.60;;
7969;SDS011;4030;52.362;9.206;2024-02-26T12:36:56;1.85;;;1.40;;
7969;SDS011;4030;52.362;9.206;2024-02-26T12:39:22;2.17;;;1.65;;
7969;SDS011;4030;52.362;9.206;2024-02-26T12:41:47;2.30;;;1.65;;
7969;SDS011;4030;52.362;9.206;2024-02-26T12:44:15;1.50;;;1.40;;
7969;SDS011;4030;52.362;9.206;2024-02-26T12:46:41;4.00;;;1.77;;
7969;SDS011;4030;52.362;9.206;2024-02-26T12:49:07;2.28;;;1.50;;
7969;SDS011;4030;52.362;9.206;2024-02-26T12:51:33;1.80;;;1.40;;
7969;SDS011;4030;52.362;9.206;2024-02-26T12:53:59;1.90;;;1.58;;
7969;SDS011;4030;52.362;9.206;2024-02-26T12:56:26;1.80;;;1.48;;
7969;SDS011;4030;52.362;9.206;2024-02-26T12:58:53;1.58;;;1.40;;
7969;SDS011;4030;52.362;9.206;2024-02-26T13:01:22;1.80;;;1.40;;
7969;SDS011;4030;52.362;9.206;2024-02-26T13:03:49;2.50;;;1.50;;
7969;SDS011;4030;52.362;9.206;2024-02-26T13:06:17;2.55;;;1.70;;
7969;SDS011;4030;52.362;9.206;2024-02-26T13:08:43;1.33;;;1.23;;
7969;SDS011;4030;52.362;9.206;2024-02-26T13:11:11;2.63;;;1.70;;
7969;SDS011;4030;52.362;9.206;2024-02-26T13:13:37;1.90;;;1.50;;
7969;SDS011;4030;52.362;9.206;2024-02-26T13:16:04;1.90;;;1.50;;
7969;SDS011;4030;52.362;9.206;2024-02-26T13:18:35;1.55;;;1.45;;
7969;SDS011;4030;52.362;9.206;2024-02-26T13:21:08;2.10;;;1.60;;
7969;SDS011;4030;52.362;9.206;2024-02-26T13:23:39;1.55;;;1.40;;
7969;SDS011;4030;52.362;9.206;2024-02-26T13:26:06;1.38;;;1.27;;
7969;SDS011;4030;52.362;9.206;2024-02-26T13:28:33;1.80;;;1.40;;
7969;SDS011;4030;52.362;9.206;2024-02-26T13:30:59;2.78;;;1.58;;
7969;SDS011;4030;52.362;9.206;2024-02-26T13:33:27;2.05;;;1.60;;
7969;SDS011;4030;52.362;9.206;2024-02-26T13:35:54;1.77;;;1.45;;
7969;SDS011;4030;52.362;9.206;2024-02-26T13:38:21;1.88;;;1.50;;
7969;SDS011;4030;52.362;9.206;2024-02-26T13:40:47;2.53;;;1.65;;
7969;SDS011;4030;52.362;9.206;2024-02-26T13:43:13;1.83;;;1.30;;
7969;SDS011;4030;52.362;9.206;2024-02-26T13:45:39;2.05;;;1.30;;
7969;SDS011;4030;52.362;9.206;2024-02-26T13:48:08;1.38;;;1.27;;
7969;SDS011;4030;52.362;9.206;2024-02-26T13:50:36;1.83;;;1.40;;
7969;SDS011;4030;52.362;9.206;2024-02-26T13:53:03;1.50;;;1.20;;
7969;SDS011;4030;52.362;9.206;2024-02-26T13:55:29;1.60;;;1.30;;
7969;SDS011;4030;52.362;9.206;2024-02-26T13:57:57;1.23;;;1.13;;
7969;SDS011;4030;52.362;9.206;2024-02-26T14:00:24;1.83;;;1.40;;
7969;SDS011;4030;52.362;9.206;2024-02-26T14:02:52;2.65;;;1.35;;
7969;SDS011;4030;52.362;9.206;2024-02-26T14:05:17;3.17;;;1.30;;
7969;SDS011;4030;52.362;9.206;2024-02-26T14:07:43;1.63;;;1.25;;
7969;SDS011;4030;52.362;9.206;2024-02-26T14:10:09;1.65;;;1.20;;
7969;SDS011;4030;52.362;9.206;2024-02-26T14:12:37;2.40;;;1.40;;
7969;SDS011;4030;52.362;9.206;2024-02-26T14:15:04;1.90;;;1.10;;
7969;SDS011;4030;52.362;9.206;2024-02-26T14:17:32;1.98;;;1.23;;
7969;SDS011;4030;52.362;9.206;2024-02-26T14:19:57;1.80;;;1.40;;
7969;SDS011;4030;52.362;9.206;2024-02-26T14:22:23;2.17;;;1.25;;
7969;SDS011;4030;52.362;9.206;2024-02-26T14:24:51;1.40;;;1.10;;
7969;SDS011;4030;52.362;9.206;2024-02-26T14:27:17;1.30;;;1.10;;
7969;SDS011;4030;52.362;9.206;2024-02-26T14:29:45;2.03;;;1.30;;
7969;SDS011;4030;52.362;9.206;2024-02-26T14:32:11;1.42;;;1.10;;
7969;SDS011;4030;52.362;9.206;2024-02-26T14:34:37;1.88;;;1.20;;
7969;SDS011;4030;52.362;9.206;2024-02-26T14:37:03;2.20;;;1.40;;
7969;SDS011;4030;52.362;9.206;2024-02-26T14:39:29;1.60;;;1.10;;
7969;SDS011;4030;52.362;9.206;2024-02-26T14:41:57;1.58;;;1.10;;
7969;SDS011;4030;52.362;9.206;2024-02-26T14:44:23;1.38;;;0.98;;
7969;SDS011;4030;52.362;9.206;2024-02-26T14:46:49;1.95;;;1.20;;
7969;SDS011;4030;52.362;9.206;2024-02-26T14:49:15;1.20;;;1.10;;
7969;SDS011;4030;52.362;9.206;2024-02-26T14:51:42;1.63;;;1.23;;
7969;SDS011;4030;52.362;9.206;2024-02-26T14:54:10;2.53;;;1.08;;
7969;SDS011;4030;52.362;9.206;2024-02-26T14:56:39;1.20;;;1.10;;
7969;SDS011;4030;52.362;9.206;2024-02-26T14:59:05;3.08;;;1.50;;
7969;SDS011;4030;52.362;9.206;2024-02-26T15:01:31;1.38;;;1.00;;
7969;SDS011;4030;52.362;9.206;2024-02-26T15:03:57;1.27;;;1.17;;
7969;SDS011;4030;52.362;9.206;2024-02-26T15:06:24;1.23;;;1.05;;
7969;SDS011;4030;52.362;9.206;2024-02-26T15:08:50;0.98;;;0.90;;
7969;SDS011;4030;52.362;9.206;2024-02-26T15:11:16;1.33;;;0.90;;
7969;SDS011;4030;52.362;9.206;2024-02-26T15:13:42;1.25;;;1.10;;
7969;SDS011;4030;52.362;9.206;2024-02-26T15:16:08;1.10;;;1.00;;
7969;SDS011;4030;52.362;9.206;2024-02-26T15:18:42;1.48;;;1.20;;
7969;SDS011;4030;52.362;9.206;2024-02-26T15:21:08;1.40;;;1.10;;